Time;durP1;ratioP1;P1;durP2;ratioP2;P2;SDS_P1;SDS_P2;PMS_P1;PMS_P2;Temp;Humidity;BMP_temperature;BMP_pressure;BME280_temperature;BME280_humidity;BME280_pressure;Samples;Min_cycle;Max_cycle;Signal;HPM_P1;HPM_P2
2023/04/24 00:02:15;;;;;;;1.40;1.30;;;;;;;;;;5023003;28;20204;-77
2023/04/24 00:04:41;;;;;;;1.27;1.17;;;;;;;;;;5016155;28;20227;-77
2023/04/24 00:07:06;;;;;;;1.57;1.30;;;;;;;;;;5008206;28;20177;-77
2023/04/24 00:09:32;;;;;;;1.23;1.13;;;;;;;;;;5009843;28;20194;-77
2023/04/24 00:11:57;;;;;;;1.50;1.20;;;;;;;;;;5001113;28;20177;-77
2023/04/24 00:14:25;;;;;;;1.37;1.27;;;;;;;;;;5016991;28;20200;-77
2023/04/24 00:16:50;;;;;;;1.30;1.10;;;;;;;;;;5031814;28;20205;-77
2023/04/24 00:19:16;;;;;;;1.67;1.40;;;;;;;;;;5034269;28;20262;-77
2023/04/24 00:21:41;;;;;;;2.90;1.43;;;;;;;;;;5015030;28;20174;-77
2023/04/24 00:24:08;;;;;;;1.53;1.23;;;;;;;;;;5021455;28;20216;-77
2023/04/24 00:26:34;;;;;;;2.00;1.40;;;;;;;;;;5035385;28;20182;-77
2023/04/24 00:28:59;;;;;;;1.23;1.13;;;;;;;;;;5007020;28;20192;-77
2023/04/24 00:31:24;;;;;;;1.33;1.23;;;;;;;;;;5011301;28;20174;-77
2023/04/24 00:33:49;;;;;;;1.77;1.23;;;;;;;;;;5031834;28;20186;-77
2023/04/24 00:36:14;;;;;;;2.13;1.40;;;;;;;;;;5019419;28;20181;-77
2023/04/24 00:38:40;;;;;;;1.40;1.30;;;;;;;;;;5014191;28;20235;-77
2023/04/24 00:41:05;;;;;;;1.63;1.20;;;;;;;;;;5005856;28;20279;-77
2023/04/24 00:43:31;;;;;;;1.33;1.23;;;;;;;;;;5014381;28;20204;-77
2023/04/24 00:45:57;;;;;;;2.50;1.27;;;;;;;;;;5005779;28;20187;-77
2023/04/24 00:48:23;;;;;;;1.30;1.20;;;;;;;;;;5006386;28;20184;-77
2023/04/24 00:50:48;;;;;;;1.80;1.20;;;;;;;;;;5012374;28;20182;-77
2023/04/24 00:53:13;;;;;;;2.30;1.40;;;;;;;;;;5013695;28;20268;-77
2023/04/24 00:55:38;;;;;;;1.17;1.10;;;;;;;;;;5015590;28;20198;-77
2023/04/24 00:58:04;;;;;;;1.20;1.03;;;;;;;;;;5010136;28;20208;-77
2023/04/24 01:00:30;;;;;;;1.83;1.00;;;;;;;;;;5027544;28;20184;-77
2023/04/24 01:02:57;;;;;;;1.47;1.37;;;;;;;;;;5003788;28;20216;-77
2023/04/24 01:05:22;;;;;;;1.50;1.20;;;;;;;;;;5014823;28;20173;-77
2023/04/24 01:07:48;;;;;;;1.63;1.13;;;;;;;;;;5014544;28;20181;-77
2023/04/24 01:10:14;;;;;;;1.40;1.10;;;;;;;;;;5023685;28;20179;-77
2023/04/24 01:12:40;;;;;;;0.90;0.90;;;;;;;;;;5011887;28;20180;-77
2023/04/24 01:15:06;;;;;;;1.03;1.03;;;;;;;;;;5016884;28;20220;-77
2023/04/24 01:17:32;;;;;;;1.23;1.20;;;;;;;;;;5031259;28;20184;-77
2023/04/24 01:19:57;;;;;;;2.47;1.10;;;;;;;;;;5023559;28;20302;-78
2023/04/24 01:22:23;;;;;;;4.20;2.50;;;;;;;;;;5012444;28;20271;-77
2023/04/24 01:24:48;;;;;;;1.53;1.20;;;;;;;;;;5014476;28;20295;-77
2023/04/24 01:27:14;;;;;;;0.97;0.97;;;;;;;;;;5014704;28;20169;-77
2023/04/24 01:29:39;;;;;;;1.10;1.10;;;;;;;;;;5042538;28;20189;-77
2023/04/24 01:32:06;;;;;;;1.50;1.27;;;;;;;;;;5009623;28;20186;-77
2023/04/24 01:34:31;;;;;;;1.37;1.27;;;;;;;;;;5013958;28;20180;-77
2023/04/24 01:36:57;;;;;;;0.90;0.90;;;;;;;;;;5014781;28;20191;-77
2023/04/24 01:39:25;;;;;;;1.87;1.10;;;;;;;;;;5040157;28;20216;-77
2023/04/24 01:41:51;;;;;;;4.57;0.97;;;;;;;;;;5010554;28;20181;-77
2023/04/24 01:44:17;;;;;;;2.93;1.27;;;;;;;;;;5013856;28;20283;-77
2023/04/24 01:46:42;;;;;;;1.50;1.20;;;;;;;;;;5017946;28;20252;-77
2023/04/24 01:49:07;;;;;;;2.07;1.20;;;;;;;;;;5014164;28;20256;-77
2023/04/24 01:51:33;;;;;;;2.03;1.20;;;;;;;;;;5008264;28;20250;-77
2023/04/24 01:53:58;;;;;;;2.23;1.20;;;;;;;;;;5028194;28;20187;-77
2023/04/24 01:56:24;;;;;;;4.77;1.27;;;;;;;;;;5017296;28;20178;-77
2023/04/24 01:58:50;;;;;;;3.00;1.30;;;;;;;;;;5010298;28;20267;-77
2023/04/24 02:01:23;;;;;;;1.93;1.00;;;;;;;;;;5030430;28;20197;-78
2023/04/24 02:03:48;;;;;;;2.07;1.20;;;;;;;;;;5010584;28;20199;-77
2023/04/24 02:06:13;;;;;;;1.37;1.20;;;;;;;;;;5022763;28;20182;-77
2023/04/24 02:08:39;;;;;;;2.10;1.50;;;;;;;;;;5011411;28;20181;-77
2023/04/24 02:11:05;;;;;;;1.00;1.00;;;;;;;;;;5004462;28;20181;-77
2023/04/24 02:13:31;;;;;;;1.07;1.07;;;;;;;;;;5032799;28;20177;-77
2023/04/24 02:15:57;;;;;;;1.27;1.17;;;;;;;;;;5030618;28;20192;-77
2023/04/24 02:18:23;;;;;;;2.43;0.90;;;;;;;;;;5017621;28;20186;-78
2023/04/24 02:20:48;;;;;;;1.30;1.20;;;;;;;;;;5014588;28;20184;-78
2023/04/24 02:23:13;;;;;;;1.20;1.00;;;;;;;;;;5016648;28;20291;-78
2023/04/24 02:25:38;;;;;;;1.40;1.30;;;;;;;;;;5007584;28;20199;-77
2023/04/24 02:28:03;;;;;;;1.00;1.00;;;;;;;;;;5012028;28;20264;-77
2023/04/24 02:30:29;;;;;;;2.33;1.30;;;;;;;;;;5015042;28;20230;-77
2023/04/24 02:32:55;;;;;;;1.37;1.20;;;;;;;;;;5016334;28;20188;-77
2023/04/24 02:35:20;;;;;;;1.53;1.20;;;;;;;;;;5016694;28;20282;-77
2023/04/24 02:37:45;;;;;;;2.27;1.20;;;;;;;;;;5012745;28;20223;-77
2023/04/24 02:40:11;;;;;;;3.77;1.10;;;;;;;;;;5014237;28;20276;-77
2023/04/24 02:42:36;;;;;;;1.67;1.30;;;;;;;;;;5012189;28;20178;-77
2023/04/24 02:45:01;;;;;;;1.43;1.33;;;;;;;;;;5021101;28;20263;-77
2023/04/24 02:47:26;;;;;;;1.40;0.90;;;;;;;;;;5018288;28;20176;-78
2023/04/24 02:49:52;;;;;;;3.37;2.43;;;;;;;;;;5015170;28;20174;-77
2023/04/24 02:52:17;;;;;;;1.97;1.07;;;;;;;;;;5038162;28;20175;-77
2023/04/24 02:54:42;;;;;;;1.73;1.20;;;;;;;;;;5020622;28;20192;-77
2023/04/24 02:57:08;;;;;;;1.13;1.03;;;;;;;;;;5018763;28;20259;-77
2023/04/24 02:59:33;;;;;;;1.03;1.00;;;;;;;;;;5014823;28;20179;-77
2023/04/24 03:01:59;;;;;;;1.20;1.10;;;;;;;;;;5008229;28;20199;-77
2023/04/24 03:04:24;;;;;;;2.10;1.13;;;;;;;;;;5040358;28;20258;-77
2023/04/24 03:06:52;;;;;;;1.80;1.10;;;;;;;;;;5033684;28;20191;-77
2023/04/24 03:09:18;;;;;;;3.50;1.03;;;;;;;;;;5028364;28;20193;-77
2023/04/24 03:11:43;;;;;;;1.20;1.10;;;;;;;;;;5015373;28;20233;-77
2023/04/24 03:14:08;;;;;;;1.13;1.03;;;;;;;;;;5018451;28;20177;-77
2023/04/24 03:16:34;;;;;;;1.50;1.03;;;;;;;;;;5027520;28;20290;-77
2023/04/24 03:18:59;;;;;;;1.77;1.10;;;;;;;;;;5034655;28;20240;-77
2023/04/24 03:21:24;;;;;;;0.97;0.90;;;;;;;;;;5018611;28;20187;-78
2023/04/24 03:23:49;;;;;;;1.97;1.20;;;;;;;;;;5013110;28;20200;-77
2023/04/24 03:26:15;;;;;;;2.37;1.30;;;;;;;;;;5018676;28;20221;-77
2023/04/24 03:28:40;;;;;;;1.00;1.00;;;;;;;;;;5012323;28;20175;-77
2023/04/24 03:31:05;;;;;;;1.17;1.07;;;;;;;;;;5034444;28;20204;-77
2023/04/24 03:33:31;;;;;;;0.90;0.90;;;;;;;;;;5019725;28;20180;-77
2023/04/24 03:35:56;;;;;;;1.27;1.03;;;;;;;;;;5040470;28;20199;-77
2023/04/24 03:38:21;;;;;;;1.00;1.00;;;;;;;;;;5021969;28;20222;-77
2023/04/24 03:40:46;;;;;;;1.00;0.90;;;;;;;;;;5015026;28;20180;-77
2023/04/24 03:43:11;;;;;;;1.90;1.20;;;;;;;;;;5017264;28;20211;-78
2023/04/24 03:45:37;;;;;;;1.97;1.33;;;;;;;;;;5013680;28;20178;-78
2023/04/24 03:48:02;;;;;;;2.20;1.80;;;;;;;;;;5009164;28;20214;-78
2023/04/24 03:50:28;;;;;;;1.93;1.60;;;;;;;;;;5010176;28;20191;-77
2023/04/24 03:52:54;;;;;;;1.67;1.50;;;;;;;;;;5025100;28;20175;-77
2023/04/24 03:55:19;;;;;;;1.70;1.60;;;;;;;;;;5013426;28;20272;-77
2023/04/24 03:57:44;;;;;;;1.57;1.47;;;;;;;;;;5014843;28;20179;-77
2023/04/24 04:00:10;;;;;;;3.47;1.70;;;;;;;;;;5015611;28;20174;-77
2023/04/24 04:02:35;;;;;;;2.63;1.50;;;;;;;;;;5007653;28;20210;-77
2023/04/24 04:05:01;;;;;;;1.50;1.40;;;;;;;;;;5031159;28;20175;-77
2023/04/24 04:07:27;;;;;;;2.80;1.63;;;;;;;;;;5020195;28;20207;-77
2023/04/24 04:09:52;;;;;;;1.73;1.60;;;;;;;;;;5030360;28;20174;-77
2023/04/24 04:12:17;;;;;;;1.80;1.70;;;;;;;;;;5012482;28;20229;-77
2023/04/24 04:14:42;;;;;;;1.53;1.43;;;;;;;;;;5013507;28;20187;-77
2023/04/24 04:17:07;;;;;;;1.70;1.60;;;;;;;;;;5019291;28;20186;-77
2023/04/24 04:19:33;;;;;;;1.77;1.63;;;;;;;;;;5015280;28;20231;-77
2023/04/24 04:21:58;;;;;;;2.07;1.50;;;;;;;;;;5026645;28;20326;-78
2023/04/24 04:24:24;;;;;;;1.50;1.40;;;;;;;;;;5020317;28;20230;-78
2023/04/24 04:26:51;;;;;;;15.40;9.17;;;;;;;;;;5021306;28;20270;-80
2023/04/24 04:29:16;;;;;;;1.93;1.77;;;;;;;;;;5014288;28;20175;-77
2023/04/24 04:31:41;;;;;;;5.13;3.60;;;;;;;;;;5018541;28;20185;-77
2023/04/24 04:34:07;;;;;;;9.37;8.57;;;;;;;;;;5030142;28;20183;-77
2023/04/24 04:36:36;;;;;;;3.10;2.40;;;;;;;;;;5018215;28;20215;-77
2023/04/24 04:39:02;;;;;;;2.63;2.27;;;;;;;;;;5023439;28;20265;-77
2023/04/24 04:41:27;;;;;;;2.50;2.30;;;;;;;;;;5015932;28;20198;-77
2023/04/24 04:43:53;;;;;;;2.27;2.10;;;;;;;;;;5025251;28;20187;-77
2023/04/24 04:46:18;;;;;;;3.53;3.00;;;;;;;;;;5017208;28;20209;-77
2023/04/24 04:48:43;;;;;;;3.73;2.47;;;;;;;;;;5012873;28;20185;-77
2023/04/24 04:51:08;;;;;;;3.07;2.83;;;;;;;;;;5022258;28;20194;-77
2023/04/24 04:53:33;;;;;;;2.80;2.60;;;;;;;;;;5020598;28;20281;-77
2023/04/24 04:55:59;;;;;;;3.47;2.83;;;;;;;;;;5036735;28;20188;-77
2023/04/24 04:58:25;;;;;;;4.07;3.10;;;;;;;;;;5024562;28;20186;-77
2023/04/24 05:00:50;;;;;;;3.60;3.30;;;;;;;;;;5019845;28;20166;-77
2023/04/24 05:03:15;;;;;;;3.63;3.33;;;;;;;;;;5020691;28;20233;-77
2023/04/24 05:05:40;;;;;;;3.30;3.00;;;;;;;;;;5040239;28;20182;-77
2023/04/24 05:08:07;;;;;;;3.00;2.77;;;;;;;;;;5014980;28;20168;-76
2023/04/24 05:10:32;;;;;;;3.37;3.07;;;;;;;;;;5025138;28;20240;-77
2023/04/24 05:12:57;;;;;;;9.17;3.70;;;;;;;;;;5031473;28;20214;-77
2023/04/24 05:15:22;;;;;;;4.73;3.73;;;;;;;;;;5024707;28;20197;-77
2023/04/24 05:17:47;;;;;;;3.97;3.60;;;;;;;;;;5032624;28;20265;-77
2023/04/24 05:20:13;;;;;;;3.63;3.33;;;;;;;;;;5016402;28;20321;-77
2023/04/24 05:22:38;;;;;;;3.60;3.30;;;;;;;;;;5014302;28;20240;-77
2023/04/24 05:25:03;;;;;;;3.20;3.00;;;;;;;;;;5030228;28;20176;-77
2023/04/24 05:27:28;;;;;;;3.97;3.20;;;;;;;;;;5014728;28;20179;-77
2023/04/24 05:29:54;;;;;;;3.40;3.10;;;;;;;;;;5019065;28;20247;-77
2023/04/24 05:32:19;;;;;;;3.50;3.20;;;;;;;;;;5026290;28;20182;-77
2023/04/24 05:34:45;;;;;;;3.97;3.50;;;;;;;;;;5019939;28;20198;-77
2023/04/24 05:37:10;;;;;;;3.20;2.90;;;;;;;;;;5031300;28;20258;-77
2023/04/24 05:39:36;;;;;;;3.13;2.90;;;;;;;;;;5015587;28;20262;-77
2023/04/24 05:42:02;;;;;;;2.93;2.73;;;;;;;;;;5036610;28;20175;-77
2023/04/24 05:44:27;;;;;;;3.50;2.87;;;;;;;;;;5010283;28;20273;-77
2023/04/24 05:46:52;;;;;;;2.63;2.43;;;;;;;;;;5013869;28;20175;-77
2023/04/24 05:49:18;;;;;;;4.77;3.30;;;;;;;;;;5009593;28;20167;-77
2023/04/24 05:51:43;;;;;;;4.07;3.03;;;;;;;;;;5012540;28;20206;-77
2023/04/24 05:54:08;;;;;;;3.10;2.80;;;;;;;;;;5011237;28;20186;-78
2023/04/24 05:56:33;;;;;;;3.80;3.37;;;;;;;;;;5010980;28;20179;-77
2023/04/24 05:58:59;;;;;;;3.30;3.00;;;;;;;;;;5013440;28;20178;-78
2023/04/24 06:01:24;;;;;;;4.30;3.03;;;;;;;;;;5011948;28;20221;-78
2023/04/24 06:03:50;;;;;;;3.20;2.90;;;;;;;;;;5023494;28;20298;-78
2023/04/24 06:06:15;;;;;;;3.37;3.07;;;;;;;;;;5017526;28;20222;-78
2023/04/24 06:08:42;;;;;;;3.50;3.20;;;;;;;;;;5028004;28;20175;-78
2023/04/24 06:11:07;;;;;;;3.37;3.07;;;;;;;;;;5013786;28;20174;-78
2023/04/24 06:13:32;;;;;;;3.40;3.00;;;;;;;;;;5019007;28;20198;-78
2023/04/24 06:15:58;;;;;;;3.27;2.97;;;;;;;;;;5011198;28;20209;-77
2023/04/24 06:18:23;;;;;;;3.20;2.93;;;;;;;;;;5011024;28;20178;-78
2023/04/24 06:20:48;;;;;;;2.97;2.77;;;;;;;;;;5011349;28;20223;-78
2023/04/24 06:23:13;;;;;;;5.70;2.97;;;;;;;;;;5009874;28;20251;-78
2023/04/24 06:25:39;;;;;;;3.37;3.07;;;;;;;;;;5028630;28;20269;-78
2023/04/24 06:28:04;;;;;;;5.53;3.23;;;;;;;;;;5009258;28;20234;-78
2023/04/24 06:30:29;;;;;;;3.33;3.03;;;;;;;;;;5015282;28;20181;-78
2023/04/24 06:32:55;;;;;;;5.10;3.00;;;;;;;;;;5015107;28;20184;-78
2023/04/24 06:35:20;;;;;;;3.00;2.67;;;;;;;;;;5010448;28;20184;-78
2023/04/24 06:37:45;;;;;;;3.40;3.10;;;;;;;;;;5006318;28;20186;-79
2023/04/24 06:40:11;;;;;;;2.87;2.57;;;;;;;;;;5022471;28;20173;-78
2023/04/24 06:42:36;;;;;;;4.23;2.43;;;;;;;;;;5009761;28;20183;-78
2023/04/24 06:45:01;;;;;;;3.73;2.77;;;;;;;;;;5015283;28;20200;-78
2023/04/24 06:47:27;;;;;;;3.07;2.77;;;;;;;;;;5014549;28;20178;-78
2023/04/24 06:49:52;;;;;;;3.07;2.77;;;;;;;;;;5014130;28;20297;-78
2023/04/24 06:52:18;;;;;;;2.83;2.60;;;;;;;;;;5020242;28;20181;-78
2023/04/24 06:54:43;;;;;;;2.77;2.57;;;;;;;;;;5011569;28;20209;-78
2023/04/24 06:57:08;;;;;;;2.53;2.33;;;;;;;;;;5008176;28;20189;-78
2023/04/24 06:59:34;;;;;;;4.50;2.97;;;;;;;;;;5012130;28;20202;-78
2023/04/24 07:02:00;;;;;;;3.60;2.50;;;;;;;;;;5011163;28;20199;-78
2023/04/24 07:04:25;;;;;;;2.83;2.60;;;;;;;;;;5011066;28;20262;-78
2023/04/24 07:06:51;;;;;;;4.97;2.90;;;;;;;;;;5013628;28;20187;-78
2023/04/24 07:09:18;;;;;;;2.70;2.50;;;;;;;;;;5010796;28;20187;-79
2023/04/24 07:11:44;;;;;;;2.90;2.60;;;;;;;;;;5007089;28;20246;-78
2023/04/24 07:14:09;;;;;;;3.07;2.53;;;;;;;;;;5013233;28;20215;-78
2023/04/24 07:16:35;;;;;;;3.13;2.60;;;;;;;;;;5001999;28;20251;-78
2023/04/24 07:19:00;;;;;;;2.50;2.30;;;;;;;;;;5014192;28;20264;-79
2023/04/24 07:21:25;;;;;;;2.73;2.53;;;;;;;;;;5028713;28;20193;-78
2023/04/24 07:23:50;;;;;;;2.37;2.17;;;;;;;;;;5016537;28;20210;-78
2023/04/24 07:26:16;;;;;;;2.77;2.10;;;;;;;;;;5012166;28;20237;-78
2023/04/24 07:28:41;;;;;;;3.53;2.50;;;;;;;;;;5017427;28;20207;-79
2023/04/24 07:31:06;;;;;;;3.50;2.20;;;;;;;;;;5011468;28;20200;-77
2023/04/24 07:33:32;;;;;;;2.83;2.63;;;;;;;;;;5004355;28;20223;-78
2023/04/24 07:35:57;;;;;;;3.13;2.50;;;;;;;;;;5014475;28;20181;-78
2023/04/24 07:38:22;;;;;;;2.50;2.30;;;;;;;;;;5012301;28;20266;-78
2023/04/24 07:40:48;;;;;;;3.20;2.10;;;;;;;;;;5028656;28;20189;-79
2023/04/24 07:43:13;;;;;;;3.03;2.53;;;;;;;;;;5014461;28;20211;-78
2023/04/24 07:45:39;;;;;;;2.70;2.50;;;;;;;;;;5020948;28;20174;-78
2023/04/24 07:48:04;;;;;;;2.43;2.23;;;;;;;;;;5014743;28;20272;-78
2023/04/24 07:50:30;;;;;;;2.40;2.20;;;;;;;;;;5017500;28;20324;-78
2023/04/24 07:52:55;;;;;;;5.30;2.73;;;;;;;;;;5041018;28;20183;-78
2023/04/24 07:55:20;;;;;;;2.60;2.40;;;;;;;;;;5009836;28;20182;-77
2023/04/24 07:57:45;;;;;;;2.47;2.27;;;;;;;;;;5013677;28;20182;-78
2023/04/24 08:00:11;;;;;;;3.27;2.47;;;;;;;;;;5022522;28;20174;-78
2023/04/24 08:02:36;;;;;;;2.73;2.20;;;;;;;;;;5021620;28;20196;-78
2023/04/24 08:05:03;;;;;;;2.40;2.20;;;;;;;;;;5013367;28;20206;-78
2023/04/24 08:07:28;;;;;;;4.30;2.93;;;;;;;;;;5020950;28;20236;-78
2023/04/24 08:09:53;;;;;;;3.53;2.70;;;;;;;;;;5010939;28;20186;-77
2023/04/24 08:12:19;;;;;;;3.00;2.40;;;;;;;;;;5016176;28;20185;-77
2023/04/24 08:14:44;;;;;;;3.43;2.83;;;;;;;;;;5016685;28;20278;-78
2023/04/24 08:17:09;;;;;;;4.07;2.43;;;;;;;;;;5017506;28;20187;-78
2023/04/24 08:19:34;;;;;;;5.30;2.47;;;;;;;;;;5016300;28;20322;-78
2023/04/24 08:22:00;;;;;;;2.93;2.60;;;;;;;;;;5013574;28;20268;-78
2023/04/24 08:24:25;;;;;;;2.80;2.50;;;;;;;;;;5020399;28;20298;-78
2023/04/24 08:26:51;;;;;;;4.00;3.23;;;;;;;;;;5011030;28;20226;-78
2023/04/24 08:29:16;;;;;;;2.90;2.70;;;;;;;;;;5014698;28;20167;-77
2023/04/24 08:31:41;;;;;;;2.80;2.40;;;;;;;;;;5016786;28;20265;-78
2023/04/24 08:34:07;;;;;;;3.83;2.53;;;;;;;;;;5012847;28;20190;-78
2023/04/24 08:36:32;;;;;;;4.77;3.10;;;;;;;;;;5014840;28;20221;-78
2023/04/24 08:38:57;;;;;;;3.73;2.80;;;;;;;;;;5019518;28;20193;-78
2023/04/24 08:41:25;;;;;;;3.10;2.77;;;;;;;;;;5014460;28;20182;-77
2023/04/24 08:43:51;;;;;;;4.90;2.43;;;;;;;;;;5013398;28;20203;-77
2023/04/24 08:46:17;;;;;;;2.90;2.70;;;;;;;;;;5012970;28;20179;-78
2023/04/24 08:48:42;;;;;;;2.57;2.37;;;;;;;;;;5032417;28;20173;-78
2023/04/24 08:51:08;;;;;;;4.13;2.30;;;;;;;;;;5013757;28;20190;-77
2023/04/24 08:53:34;;;;;;;2.50;2.30;;;;;;;;;;5015699;28;20183;-77
2023/04/24 08:56:01;;;;;;;2.33;2.13;;;;;;;;;;5007551;28;20179;-78
2023/04/24 08:58:26;;;;;;;4.40;2.40;;;;;;;;;;5010241;28;20182;-78
2023/04/24 09:00:54;;;;;;;2.73;2.37;;;;;;;;;;5032068;28;20167;-77
2023/04/24 09:03:20;;;;;;;2.67;2.47;;;;;;;;;;5017562;28;20213;-78
2023/04/24 09:05:46;;;;;;;2.77;2.57;;;;;;;;;;5017338;28;20198;-77
2023/04/24 09:08:13;;;;;;;2.40;2.30;;;;;;;;;;5014505;28;20172;-77
2023/04/24 09:10:38;;;;;;;4.80;2.93;;;;;;;;;;5016787;28;20170;-78
2023/04/24 09:13:04;;;;;;;4.67;2.50;;;;;;;;;;5012555;28;20228;-77
2023/04/24 09:15:29;;;;;;;4.83;2.30;;;;;;;;;;5016596;28;20180;-77
2023/04/24 09:17:55;;;;;;;2.77;2.57;;;;;;;;;;5021670;28;20241;-80
2023/04/24 09:20:20;;;;;;;3.17;2.60;;;;;;;;;;4991562;28;20223;-78
2023/04/24 09:22:45;;;;;;;3.57;2.10;;;;;;;;;;4993562;28;20187;-78
2023/04/24 09:25:12;;;;;;;4.30;2.63;;;;;;;;;;5011761;28;20199;-78
2023/04/24 09:27:40;;;;;;;2.50;2.30;;;;;;;;;;5012919;28;20202;-78
2023/04/24 09:30:07;;;;;;;2.70;2.50;;;;;;;;;;5011821;28;20266;-78
2023/04/24 09:32:32;;;;;;;2.60;2.40;;;;;;;;;;5029733;28;20264;-78
2023/04/24 09:35:24;;;;;;;4.77;3.07;;;;;;;;;;5011839;28;20195;-78
2023/04/24 09:37:51;;;;;;;4.07;3.37;;;;;;;;;;5011997;28;20592;-77
2023/04/24 09:40:17;;;;;;;3.80;3.00;;;;;;;;;;5013713;28;20187;-77
2023/04/24 09:42:43;;;;;;;2.67;2.47;;;;;;;;;;5024491;28;20187;-77
2023/04/24 09:45:10;;;;;;;2.93;2.73;;;;;;;;;;5017255;28;20210;-77
2023/04/24 09:47:36;;;;;;;3.87;3.47;;;;;;;;;;5009594;28;20179;-78
2023/04/24 09:50:09;;;;;;;4.20;2.60;;;;;;;;;;5017279;28;20180;-77
2023/04/24 09:52:34;;;;;;;3.70;2.47;;;;;;;;;;5005368;28;20183;-77
2023/04/24 09:54:59;;;;;;;2.60;2.40;;;;;;;;;;5010097;28;20184;-77
2023/04/24 09:57:24;;;;;;;5.20;2.10;;;;;;;;;;5015948;28;20236;-77
2023/04/24 09:59:52;;;;;;;2.57;2.37;;;;;;;;;;5014994;28;20233;-77
2023/04/24 10:02:19;;;;;;;3.00;2.60;;;;;;;;;;5036273;28;20266;-78
2023/04/24 10:04:54;;;;;;;3.33;2.20;;;;;;;;;;5027816;28;20218;-78
2023/04/24 10:07:19;;;;;;;2.13;1.93;;;;;;;;;;5011924;28;20202;-78
2023/04/24 10:09:44;;;;;;;1.87;1.63;;;;;;;;;;5013434;28;20206;-77
2023/04/24 10:12:10;;;;;;;2.10;1.87;;;;;;;;;;5032315;28;20215;-78
2023/04/24 10:14:36;;;;;;;2.10;2.00;;;;;;;;;;5024235;28;20262;-78
2023/04/24 10:17:01;;;;;;;2.47;2.13;;;;;;;;;;5015782;28;20183;-78
2023/04/24 10:19:26;;;;;;;3.10;2.13;;;;;;;;;;5032514;28;20235;-77
2023/04/24 10:21:52;;;;;;;2.90;2.43;;;;;;;;;;5017563;28;20235;-78
2023/04/24 10:24:18;;;;;;;2.33;2.13;;;;;;;;;;5014155;28;20195;-77
2023/04/24 10:26:44;;;;;;;3.03;2.00;;;;;;;;;;5015141;28;20184;-79
2023/04/24 10:29:12;;;;;;;3.27;2.40;;;;;;;;;;5018946;28;20170;-80
2023/04/24 10:31:38;;;;;;;2.20;1.90;;;;;;;;;;5016306;28;20185;-77
2023/04/24 10:34:04;;;;;;;3.57;1.87;;;;;;;;;;5011686;28;20186;-78
2023/04/24 10:36:32;;;;;;;3.10;2.73;;;;;;;;;;5010951;28;20182;-78
2023/04/24 10:38:58;;;;;;;2.47;2.27;;;;;;;;;;5010418;28;20175;-77
2023/04/24 10:41:25;;;;;;;3.67;1.90;;;;;;;;;;5020495;28;20185;-77
2023/04/24 10:44:10;;;;;;;3.00;2.70;;;;;;;;;;5013358;28;20264;-78
2023/04/24 10:46:35;;;;;;;2.67;2.47;;;;;;;;;;5014822;28;20182;-77
2023/04/24 10:49:10;;;;;;;3.50;3.20;;;;;;;;;;5019437;28;20182;-78
2023/04/24 10:51:52;;;;;;;3.03;2.27;;;;;;;;;;5018503;28;20180;-78
2023/04/24 10:54:24;;;;;;;3.13;2.83;;;;;;;;;;5010992;28;20217;-78
2023/04/24 10:56:52;;;;;;;2.33;2.13;;;;;;;;;;5013648;28;20259;-78
2023/04/24 10:59:25;;;;;;;3.73;2.27;;;;;;;;;;5013855;28;20183;-78
2023/04/24 11:01:52;;;;;;;2.80;2.20;;;;;;;;;;5020769;28;20181;-78
2023/04/24 11:04:28;;;;;;;4.73;2.30;;;;;;;;;;5030724;28;20225;-78
2023/04/24 11:06:53;;;;;;;2.40;2.20;;;;;;;;;;5009795;28;20214;-78
2023/04/24 11:09:20;;;;;;;3.73;2.37;;;;;;;;;;5017767;28;20203;-77
2023/04/24 11:11:46;;;;;;;2.50;2.30;;;;;;;;;;5035577;28;20188;-78
2023/04/24 11:14:14;;;;;;;3.77;2.90;;;;;;;;;;5015398;28;20168;-78
2023/04/24 11:16:51;;;;;;;2.77;2.50;;;;;;;;;;5033582;28;20184;-78
2023/04/24 11:19:16;;;;;;;3.07;2.87;;;;;;;;;;5013545;28;20257;-78
2023/04/24 11:21:43;;;;;;;3.03;2.83;;;;;;;;;;5013374;28;20206;-78
2023/04/24 11:24:27;;;;;;;2.93;2.73;;;;;;;;;;5016158;28;20218;-77
2023/04/24 11:26:56;;;;;;;2.53;2.33;;;;;;;;;;5033295;28;20183;-78
2023/04/24 11:29:22;;;;;;;2.70;2.30;;;;;;;;;;5019031;28;20307;-78
2023/04/24 11:31:51;;;;;;;2.40;2.20;;;;;;;;;;5016991;28;20266;-79
2023/04/24 11:34:17;;;;;;;3.20;3.00;;;;;;;;;;5013911;28;20193;-78
2023/04/24 11:36:43;;;;;;;2.40;2.20;;;;;;;;;;5017230;28;20259;-78
2023/04/24 11:39:09;;;;;;;1.90;1.80;;;;;;;;;;5020407;28;20196;-78
2023/04/24 11:41:35;;;;;;;2.63;2.43;;;;;;;;;;5015555;28;20189;-78
2023/04/24 11:44:00;;;;;;;4.27;2.83;;;;;;;;;;5016493;28;20204;-78
2023/04/24 11:46:30;;;;;;;2.60;2.40;;;;;;;;;;5019844;28;20179;-78
2023/04/24 11:48:55;;;;;;;2.50;2.30;;;;;;;;;;5030441;28;20307;-78
2023/04/24 11:51:22;;;;;;;2.60;2.40;;;;;;;;;;5019800;28;20183;-78
2023/04/24 11:53:48;;;;;;;2.60;2.40;;;;;;;;;;5018280;28;20202;-78
2023/04/24 11:56:16;;;;;;;2.77;2.57;;;;;;;;;;5016314;28;20180;-78
2023/04/24 11:58:42;;;;;;;3.20;2.90;;;;;;;;;;5033845;28;20175;-78
2023/04/24 12:01:07;;;;;;;2.57;2.37;;;;;;;;;;5014679;28;20204;-77
2023/04/24 12:03:32;;;;;;;2.80;2.53;;;;;;;;;;5012088;28;20243;-78
2023/04/24 12:06:07;;;;;;;2.37;2.17;;;;;;;;;;5017631;28;20184;-78
2023/04/24 12:08:32;;;;;;;2.80;2.50;;;;;;;;;;5019435;28;20175;-78
2023/04/24 12:10:59;;;;;;;2.67;2.33;;;;;;;;;;5019022;28;20191;-78
2023/04/24 12:13:27;;;;;;;1.93;1.83;;;;;;;;;;5038363;28;20208;-78
2023/04/24 12:15:53;;;;;;;4.07;2.50;;;;;;;;;;5036025;28;20192;-78
2023/04/24 12:18:18;;;;;;;3.80;1.97;;;;;;;;;;5021949;28;20174;-78
2023/04/24 12:20:44;;;;;;;2.77;2.50;;;;;;;;;;5010283;28;20320;-78
2023/04/24 12:23:09;;;;;;;2.10;1.70;;;;;;;;;;5014416;28;20191;-78
2023/04/24 12:25:34;;;;;;;1.87;1.77;;;;;;;;;;5012449;28;20187;-78
2023/04/24 12:28:06;;;;;;;2.43;2.23;;;;;;;;;;5014066;28;20185;-78
2023/04/24 12:30:35;;;;;;;2.40;2.20;;;;;;;;;;5039615;28;20211;-78
2023/04/24 12:33:01;;;;;;;2.97;2.77;;;;;;;;;;5021114;28;20175;-78
2023/04/24 12:35:28;;;;;;;3.00;2.70;;;;;;;;;;5012182;28;20237;-78
2023/04/24 12:37:53;;;;;;;4.50;3.37;;;;;;;;;;5018950;28;20208;-78
2023/04/24 12:40:20;;;;;;;3.53;3.23;;;;;;;;;;5033921;28;20237;-78
2023/04/24 12:42:46;;;;;;;3.30;3.00;;;;;;;;;;5015123;28;20275;-78
2023/04/24 12:45:12;;;;;;;2.73;2.50;;;;;;;;;;5013386;28;20200;-78
2023/04/24 12:47:38;;;;;;;3.27;2.90;;;;;;;;;;5014622;28;20180;-77
2023/04/24 12:50:03;;;;;;;3.43;3.13;;;;;;;;;;5018861;28;20235;-78
2023/04/24 12:52:29;;;;;;;7.50;3.43;;;;;;;;;;5015506;28;20176;-77
2023/04/24 12:54:55;;;;;;;3.53;3.13;;;;;;;;;;5014083;28;20226;-78
2023/04/24 12:57:20;;;;;;;3.50;3.20;;;;;;;;;;5013598;28;20185;-78
2023/04/24 12:59:46;;;;;;;3.27;2.97;;;;;;;;;;5021035;28;20196;-78
2023/04/24 13:02:11;;;;;;;5.33;3.30;;;;;;;;;;5016953;28;20206;-78
2023/04/24 13:04:36;;;;;;;5.97;4.50;;;;;;;;;;5017369;28;20240;-78
2023/04/24 13:07:02;;;;;;;6.10;3.47;;;;;;;;;;5017606;28;20226;-78
2023/04/24 13:09:27;;;;;;;3.53;3.23;;;;;;;;;;5014807;28;20202;-78
2023/04/24 13:11:52;;;;;;;5.30;3.80;;;;;;;;;;5010469;28;20185;-78
2023/04/24 13:14:17;;;;;;;2.83;2.53;;;;;;;;;;5012662;28;20338;-78
2023/04/24 13:16:43;;;;;;;3.87;3.03;;;;;;;;;;5031551;28;20196;-78
2023/04/24 13:19:08;;;;;;;3.00;2.70;;;;;;;;;;5021609;28;20226;-78
2023/04/24 13:21:33;;;;;;;2.97;2.77;;;;;;;;;;4995153;28;20181;-78
2023/04/24 13:23:58;;;;;;;4.53;2.77;;;;;;;;;;4992993;28;20200;-78
2023/04/24 13:26:25;;;;;;;3.07;2.77;;;;;;;;;;4993431;28;20238;-78
2023/04/24 13:28:50;;;;;;;3.77;3.47;;;;;;;;;;4998759;28;20218;-78
2023/04/24 13:31:16;;;;;;;3.93;2.53;;;;;;;;;;5016302;28;20189;-77
2023/04/24 13:33:41;;;;;;;3.63;3.33;;;;;;;;;;5004573;28;20177;-78
2023/04/24 13:36:06;;;;;;;2.93;2.70;;;;;;;;;;5000866;28;20182;-78
2023/04/24 13:38:31;;;;;;;3.70;3.23;;;;;;;;;;4993917;28;20181;-78
2023/04/24 13:40:57;;;;;;;3.60;3.10;;;;;;;;;;4992606;28;20214;-78
2023/04/24 13:43:22;;;;;;;3.43;3.13;;;;;;;;;;4992227;28;20205;-77
2023/04/24 13:45:47;;;;;;;3.73;3.43;;;;;;;;;;5020718;28;20205;-78
2023/04/24 13:48:15;;;;;;;3.50;2.97;;;;;;;;;;4996735;28;20179;-78
2023/04/24 13:50:40;;;;;;;3.50;3.20;;;;;;;;;;4995559;28;20205;-78
2023/04/24 13:53:06;;;;;;;4.37;3.20;;;;;;;;;;4986721;28;20208;-77
2023/04/24 13:55:31;;;;;;;4.93;3.93;;;;;;;;;;4991746;28;20181;-78
2023/04/24 13:57:56;;;;;;;3.60;3.30;;;;;;;;;;5022761;28;20185;-78
2023/04/24 14:00:22;;;;;;;3.47;3.03;;;;;;;;;;5008359;28;20214;-78
2023/04/24 14:02:47;;;;;;;3.70;3.40;;;;;;;;;;5011272;28;20212;-78
2023/04/24 14:05:14;;;;;;;5.07;3.50;;;;;;;;;;5010260;28;20266;-78
2023/04/24 14:07:40;;;;;;;3.50;3.20;;;;;;;;;;4996269;28;20171;-78
2023/04/24 14:10:05;;;;;;;3.37;3.07;;;;;;;;;;4998365;28;20168;-78
2023/04/24 14:12:30;;;;;;;3.87;3.27;;;;;;;;;;5028995;28;20183;-78
2023/04/24 14:14:55;;;;;;;4.07;3.17;;;;;;;;;;4999138;28;20186;-77
2023/04/24 14:17:21;;;;;;;4.30;3.00;;;;;;;;;;5009671;28;20279;-78
2023/04/24 14:19:46;;;;;;;3.90;3.47;;;;;;;;;;5001799;28;20235;-78
2023/04/24 14:22:11;;;;;;;3.87;3.10;;;;;;;;;;5008148;28;20186;-77
2023/04/24 14:24:37;;;;;;;4.77;3.10;;;;;;;;;;5006353;28;20233;-77
2023/04/24 14:27:02;;;;;;;3.63;3.33;;;;;;;;;;5012513;28;20182;-78
2023/04/24 14:29:27;;;;;;;3.40;3.10;;;;;;;;;;5010867;28;20186;-78
2023/04/24 14:31:52;;;;;;;3.73;3.20;;;;;;;;;;5012700;28;20261;-78
2023/04/24 14:34:18;;;;;;;3.17;2.83;;;;;;;;;;5014856;28;20189;-77
2023/04/24 14:36:43;;;;;;;4.23;3.50;;;;;;;;;;5009290;28;20179;-78